Danby, VT (05739)

8:00 PM EDT on August 04, 2015 (GMT -0400)
HighView Ridge | | Change Station
CLOSE
Current Station
Personal Weather Station
Location: Danby, VT
Elevation: 1762 ft
Nearby Weather Stations

Elev 1762 ft 43.36 °N, 73.03 °W | Updated 15 seconds ago

Overcast
Overcast
65.8 °F
Feels Like 65.8 °F
N
0.0
Wind Variable Wind from NW
Gusts 1.0 mph

Today
High -- | Low -- °F
--% Chance of Precip.
Yesterday
High -- | Low -- °F
Precip. -- in
5:44 AM 8:10 PM
Waning Gibbous, 73% visible
Pressure 29.87 in
Visibility 10.0 miles
Clouds Overcast 10000 ft
Dew Point 54 °F
Humidity 67%
Rainfall 0.18 in
Snow Depth Not available.
UV 0 out of 12
Pollen 7.40 out of 12
Air Quality Not available.
Flu Activity Not available.
METAR KRUT 042355Z AUTO 13011KT 10SM OVC100 20/16 A2987 RMK AO1 60001 10270 20200 52014

More Conditions Fewer Conditions

Pressure 29.87 in
Visibility 10.0 miles
Clouds Overcast 10000 ft
Dew Point 54 °F
Humidity 67%
Rainfall 0.18 in
Snow Depth Not available.
UV 0 out of 12
Pollen 7.40 out of 12
Air Quality Not available.
Flu Activity Not available.
METAR KRUT 042355Z AUTO 13011KT 10SM OVC100 20/16 A2987 RMK AO1 60001 10270 20200 52014

More Conditions Fewer Conditions

10-Day Weather Forecast

×

Almanac

Astronomy

Aug. 04, 2015 Rise Set
Actual Time
Civil Twilight
Nautical Twilight
Astronomical Twilight
Moon
Length of Visible Light
Length of Day
Tomorrow will be .
, % of the Moon is Illuminated

Today's Extremes

State Highs State Lows

Community

WunderPhotos

Upload Photos

1,844,024 photos uploaded!

WunderBlogs® & News

Nearby

Air Quality

  Air Quality AQ Index Pollutant
Not available.

Snow Depth

Station Depth Elevation

Earthquake Activity

City Distance Mag. Time & Date
Minimum magnitude displayed is 2.5.

Coastal Water Temperatures

Place Temperature

Stations

Nearby Weather Stations

Station Location Temp. Windchill Dew Point Humidity Wind Precip. Elev Updated Type